Plevna, Montana
Current Conditions -  °F | °C
As of 1:51 AM on Sunday 21 Dec 2014 (Local Time) from KBHK Reporting Station
Clear Clear  
Wind Chill: -9°   Ceiling: Unl
Heat Index: -6°   Visibility: 10mi
Dew Point: -7°   Wind: 5mph
Humidity: 92%   Direction: 100°E
Pressure: 29.64"   Gusts: NA
Location:  46.42°N, 104.52°W
Report Text: KBHK 210851Z AUTO 10004KT 10SM CLR M06/M07 A2964 RMK AO2 SLP056 T10561067 58026
Loading
Personal Weather Stations






























Interactive Weather Map New forecast layout! Learn more

10-Day Weather Forecast

Advertisements
Track Severe Weather on mobile